HDH weather

Hermod Platform Helipad
Ciudad Del Carmen, Campeche, Mexico

Public forecast

Using degrees Celsius for public forecast. Weather courtesy of forecast.io.

METAR (pilot weather report)

Closest report is Ciudad del Carmen International Airport, 52.3 nm (96.8 km) ESE. Retrieved 2019/09/21 11:42 UTC (28 minutes ago):

MMCE 211142Z 00000KT 7SM FEW015 26/22 A2991 RMK SLP125 5//// 9// 8/500

TAF (pilot weather forecast)

Forecast is more than 6 hours old.

Closest forecast is Ciudad del Carmen International Airport, 52.3 nm (96.8 km) ESE. Retrieved 2019/09/21 06:00 UTC (6 hours ago):

TAF MMCE 210528Z 2106/2206 02010KT P6SM SKC FM211800 36015KT P6SM SCT025 BKN250 FM220500 02010KT P6SM SKC